EGPD

Aberdeen Dyce Airport

Aberdeen, United Kingdom
METAR EGPD 221350Z 25016KT 9999 FEW042 13/05 Q1025 NOSIG
Observed Flight Rules
Oct-22 @ 13:50 UTC (30 minutes ago) Visual Flight Rules
Wind Visibility Clouds
250° at 16 knots 10,000+ meters
  • Few at 4,200' AGL
Temperatures Readings
Current 13°C / 55°F
Dewpoint 5°C / 41°F
Humidity 59%
Altimeter 30.27" Hg
Pressure 1025 hPa
Elevation 65
METAR EGPD 221350Z 25016KT 9999 FEW042 13/05 Q1025 NOSIG
Observed Flight Rules
Oct-22 @ 13:50 UTC
(30 minutes ago)
VFR
Wind Visibility
250° at 16 knots 10,000+ meters
Clouds
  • Few at 4,200' AGL
Temperature Dewpoint
13°C / 55°F 5°C / 41°F
Humidity Altimeter Pressure
59% 30.27" Hg 1025 hPa